sensor_id;sensor_type;location;lat;lon;timestamp;P1;durP1;ratioP1;P2;durP2;ratioP2
69795;SDS011;57073;45.650;9.612;2022-08-02T00:01:36;4.18;;;2.60;;
69795;SDS011;57073;45.650;9.612;2022-08-02T00:03:36;6.97;;;2.77;;
69795;SDS011;57073;45.650;9.612;2022-08-02T00:05:37;7.27;;;2.60;;
69795;SDS011;57073;45.650;9.612;2022-08-02T00:07:37;3.53;;;2.50;;
69795;SDS011;57073;45.650;9.612;2022-08-02T00:09:38;6.13;;;2.50;;
69795;SDS011;57073;45.650;9.612;2022-08-02T00:11:38;5.23;;;2.77;;
69795;SDS011;57073;45.650;9.612;2022-08-02T00:13:39;5.13;;;2.90;;
69795;SDS011;57073;45.650;9.612;2022-08-02T00:15:39;3.87;;;2.90;;
69795;SDS011;57073;45.650;9.612;2022-08-02T00:17:39;6.70;;;2.75;;
69795;SDS011;57073;45.650;9.612;2022-08-02T00:20:03;2.97;;;2.60;;
69795;SDS011;57073;45.650;9.612;2022-08-02T00:22:04;5.38;;;2.90;;
69795;SDS011;57073;45.650;9.612;2022-08-02T00:24:04;5.87;;;2.97;;
69795;SDS011;57073;45.650;9.612;2022-08-02T00:26:05;3.85;;;2.67;;
69795;SDS011;57073;45.650;9.612;2022-08-02T00:28:05;4.77;;;2.80;;
69795;SDS011;57073;45.650;9.612;2022-08-02T00:30:06;5.20;;;2.70;;
69795;SDS011;57073;45.650;9.612;2022-08-02T00:32:06;3.47;;;2.60;;
69795;SDS011;57073;45.650;9.612;2022-08-02T00:34:07;4.53;;;2.47;;
69795;SDS011;57073;45.650;9.612;2022-08-02T00:36:07;4.05;;;3.08;;
69795;SDS011;57073;45.650;9.612;2022-08-02T00:38:08;5.83;;;3.00;;
69795;SDS011;57073;45.650;9.612;2022-08-02T00:40:10;3.97;;;2.90;;
69795;SDS011;57073;45.650;9.612;2022-08-02T00:42:12;5.13;;;3.00;;
69795;SDS011;57073;45.650;9.612;2022-08-02T00:44:14;3.83;;;3.00;;
69795;SDS011;57073;45.650;9.612;2022-08-02T00:46:16;4.10;;;2.90;;
69795;SDS011;57073;45.650;9.612;2022-08-02T00:48:18;3.60;;;3.00;;
69795;SDS011;57073;45.650;9.612;2022-08-02T00:50:18;6.70;;;3.57;;
69795;SDS011;57073;45.650;9.612;2022-08-02T00:52:18;5.07;;;3.60;;
69795;SDS011;57073;45.650;9.612;2022-08-02T00:54:19;6.35;;;3.35;;
69795;SDS011;57073;45.650;9.612;2022-08-02T00:56:19;4.27;;;3.20;;
69795;SDS011;57073;45.650;9.612;2022-08-02T00:58:20;4.13;;;3.20;;
69795;SDS011;57073;45.650;9.612;2022-08-02T01:00:20;4.88;;;3.40;;
69795;SDS011;57073;45.650;9.612;2022-08-02T01:02:21;4.27;;;3.07;;
69795;SDS011;57073;45.650;9.612;2022-08-02T01:04:21;4.27;;;3.17;;
69795;SDS011;57073;45.650;9.612;2022-08-02T01:06:21;4.50;;;3.47;;
69795;SDS011;57073;45.650;9.612;2022-08-02T01:08:22;5.03;;;3.63;;
69795;SDS011;57073;45.650;9.612;2022-08-02T01:10:22;5.53;;;3.35;;
69795;SDS011;57073;45.650;9.612;2022-08-02T01:12:23;4.33;;;2.97;;
69795;SDS011;57073;45.650;9.612;2022-08-02T01:14:23;3.50;;;3.00;;
69795;SDS011;57073;45.650;9.612;2022-08-02T01:16:25;4.00;;;2.80;;
69795;SDS011;57073;45.650;9.612;2022-08-02T01:18:29;2.75;;;2.45;;
69795;SDS011;57073;45.650;9.612;2022-08-02T01:23:29;5.00;;;2.80;;
69795;SDS011;57073;45.650;9.612;2022-08-02T01:30:25;4.30;;;2.65;;
69795;SDS011;57073;45.650;9.612;2022-08-02T01:32:32;3.20;;;2.60;;
69795;SDS011;57073;45.650;9.612;2022-08-02T01:34:40;3.80;;;2.70;;
69795;SDS011;57073;45.650;9.612;2022-08-02T01:36:57;4.60;;;3.00;;
69795;SDS011;57073;45.650;9.612;2022-08-02T01:39:02;2.95;;;2.70;;
69795;SDS011;57073;45.650;9.612;2022-08-02T01:41:05;3.28;;;2.65;;
69795;SDS011;57073;45.650;9.612;2022-08-02T01:43:08;3.95;;;2.60;;
69795;SDS011;57073;45.650;9.612;2022-08-02T01:45:11;2.90;;;2.70;;
69795;SDS011;57073;45.650;9.612;2022-08-02T01:47:18;3.22;;;2.92;;
69795;SDS011;57073;45.650;9.612;2022-08-02T01:49:21;3.58;;;2.70;;
69795;SDS011;57073;45.650;9.612;2022-08-02T01:51:24;3.38;;;2.70;;
69795;SDS011;57073;45.650;9.612;2022-08-02T01:53:47;3.15;;;2.72;;
69795;SDS011;57073;45.650;9.612;2022-08-02T01:55:50;3.33;;;2.60;;
69795;SDS011;57073;45.650;9.612;2022-08-02T01:57:57;3.45;;;2.63;;
69795;SDS011;57073;45.650;9.612;2022-08-02T02:00:03;2.80;;;2.60;;
69795;SDS011;57073;45.650;9.612;2022-08-02T02:02:06;2.90;;;2.60;;
69795;SDS011;57073;45.650;9.612;2022-08-02T02:04:08;4.00;;;3.00;;
69795;SDS011;57073;45.650;9.612;2022-08-02T02:06:09;4.63;;;2.70;;
69795;SDS011;57073;45.650;9.612;2022-08-02T02:08:11;3.53;;;2.58;;
69795;SDS011;57073;45.650;9.612;2022-08-02T02:10:14;5.50;;;2.70;;
69795;SDS011;57073;45.650;9.612;2022-08-02T02:12:18;4.70;;;2.58;;
69795;SDS011;57073;45.650;9.612;2022-08-02T02:14:19;2.87;;;2.67;;
69795;SDS011;57073;45.650;9.612;2022-08-02T02:16:20;2.97;;;2.70;;
69795;SDS011;57073;45.650;9.612;2022-08-02T02:18:24;3.13;;;2.67;;
69795;SDS011;57073;45.650;9.612;2022-08-02T02:20:28;2.95;;;2.65;;
69795;SDS011;57073;45.650;9.612;2022-08-02T02:22:29;2.63;;;2.37;;
69795;SDS011;57073;45.650;9.612;2022-08-02T02:24:29;3.72;;;3.08;;
69795;SDS011;57073;45.650;9.612;2022-08-02T02:26:30;2.80;;;2.57;;
69795;SDS011;57073;45.650;9.612;2022-08-02T02:28:34;3.83;;;2.30;;
69795;SDS011;57073;45.650;9.612;2022-08-02T02:30:41;3.03;;;2.70;;
69795;SDS011;57073;45.650;9.612;2022-08-02T02:32:57;3.35;;;2.50;;
69795;SDS011;57073;45.650;9.612;2022-08-02T02:35:00;2.90;;;2.60;;
69795;SDS011;57073;45.650;9.612;2022-08-02T02:37:04;3.57;;;2.57;;
69795;SDS011;57073;45.650;9.612;2022-08-02T02:39:07;2.97;;;2.40;;
69795;SDS011;57073;45.650;9.612;2022-08-02T02:41:11;2.75;;;2.55;;
69795;SDS011;57073;45.650;9.612;2022-08-02T02:43:13;3.25;;;2.40;;
69795;SDS011;57073;45.650;9.612;2022-08-02T02:45:14;3.85;;;2.90;;
69795;SDS011;57073;45.650;9.612;2022-08-02T02:47:17;2.87;;;2.40;;
69795;SDS011;57073;45.650;9.612;2022-08-02T02:49:19;2.45;;;2.10;;
69795;SDS011;57073;45.650;9.612;2022-08-02T02:51:20;2.53;;;2.33;;
69795;SDS011;57073;45.650;9.612;2022-08-02T02:53:23;3.83;;;2.50;;
69795;SDS011;57073;45.650;9.612;2022-08-02T02:55:24;3.58;;;2.67;;
69795;SDS011;57073;45.650;9.612;2022-08-02T02:57:26;3.00;;;2.50;;
69795;SDS011;57073;45.650;9.612;2022-08-02T02:59:27;3.08;;;2.70;;
69795;SDS011;57073;45.650;9.612;2022-08-02T03:01:27;2.97;;;2.50;;
69795;SDS011;57073;45.650;9.612;2022-08-02T03:03:31;2.90;;;2.60;;
69795;SDS011;57073;45.650;9.612;2022-08-02T03:05:33;4.57;;;2.65;;
69795;SDS011;57073;45.650;9.612;2022-08-02T03:07:33;5.53;;;2.60;;
69795;SDS011;57073;45.650;9.612;2022-08-02T03:09:34;3.92;;;2.60;;
69795;SDS011;57073;45.650;9.612;2022-08-02T03:11:35;3.30;;;3.00;;
69795;SDS011;57073;45.650;9.612;2022-08-02T03:13:36;4.47;;;2.40;;
69795;SDS011;57073;45.650;9.612;2022-08-02T03:15:37;4.47;;;2.83;;
69795;SDS011;57073;45.650;9.612;2022-08-02T03:17:39;3.88;;;2.55;;
69795;SDS011;57073;45.650;9.612;2022-08-02T03:19:41;2.92;;;2.60;;
69795;SDS011;57073;45.650;9.612;2022-08-02T03:21:42;4.90;;;2.67;;
69795;SDS011;57073;45.650;9.612;2022-08-02T03:23:43;6.32;;;2.78;;
69795;SDS011;57073;45.650;9.612;2022-08-02T03:25:44;3.80;;;2.67;;
69795;SDS011;57073;45.650;9.612;2022-08-02T03:27:44;3.00;;;2.60;;
69795;SDS011;57073;45.650;9.612;2022-08-02T03:29:45;4.00;;;2.60;;
69795;SDS011;57073;45.650;9.612;2022-08-02T03:31:46;2.90;;;2.40;;
69795;SDS011;57073;45.650;9.612;2022-08-02T03:33:46;3.23;;;2.57;;
69795;SDS011;57073;45.650;9.612;2022-08-02T03:35:47;4.47;;;2.70;;
69795;SDS011;57073;45.650;9.612;2022-08-02T03:37:51;4.88;;;2.70;;
69795;SDS011;57073;45.650;9.612;2022-08-02T03:39:53;2.92;;;2.50;;
69795;SDS011;57073;45.650;9.612;2022-08-02T03:41:53;3.43;;;2.50;;
69795;SDS011;57073;45.650;9.612;2022-08-02T03:43:54;3.10;;;2.67;;
69795;SDS011;57073;45.650;9.612;2022-08-02T03:45:57;2.65;;;2.45;;
69795;SDS011;57073;45.650;9.612;2022-08-02T03:47:59;4.77;;;2.90;;
69795;SDS011;57073;45.650;9.612;2022-08-02T03:50:00;6.22;;;3.08;;
69795;SDS011;57073;45.650;9.612;2022-08-02T03:52:01;3.55;;;2.50;;
69795;SDS011;57073;45.650;9.612;2022-08-02T03:54:02;5.97;;;2.75;;
69795;SDS011;57073;45.650;9.612;2022-08-02T03:56:03;5.73;;;2.77;;
69795;SDS011;57073;45.650;9.612;2022-08-02T03:58:05;3.78;;;2.35;;
69795;SDS011;57073;45.650;9.612;2022-08-02T04:00:06;3.17;;;2.43;;
69795;SDS011;57073;45.650;9.612;2022-08-02T04:02:08;3.90;;;2.70;;
69795;SDS011;57073;45.650;9.612;2022-08-02T04:04:09;3.15;;;2.55;;
69795;SDS011;57073;45.650;9.612;2022-08-02T04:06:10;2.73;;;2.30;;
69795;SDS011;57073;45.650;9.612;2022-08-02T04:08:10;3.90;;;2.50;;
69795;SDS011;57073;45.650;9.612;2022-08-02T04:10:11;4.22;;;2.40;;
69795;SDS011;57073;45.650;9.612;2022-08-02T04:12:11;2.70;;;2.50;;
69795;SDS011;57073;45.650;9.612;2022-08-02T04:14:12;3.22;;;2.38;;
69795;SDS011;57073;45.650;9.612;2022-08-02T04:16:13;3.10;;;2.70;;
69795;SDS011;57073;45.650;9.612;2022-08-02T04:18:18;5.03;;;2.40;;
69795;SDS011;57073;45.650;9.612;2022-08-02T04:20:27;6.40;;;3.00;;
69795;SDS011;57073;45.650;9.612;2022-08-02T04:22:34;3.85;;;2.53;;
69795;SDS011;57073;45.650;9.612;2022-08-02T04:24:39;2.75;;;2.55;;
69795;SDS011;57073;45.650;9.612;2022-08-02T04:26:44;5.00;;;3.00;;
69795;SDS011;57073;45.650;9.612;2022-08-02T04:28:45;4.80;;;3.33;;
69795;SDS011;57073;45.650;9.612;2022-08-02T04:30:47;4.40;;;3.00;;
69795;SDS011;57073;45.650;9.612;2022-08-02T04:32:49;5.93;;;3.10;;
69795;SDS011;57073;45.650;9.612;2022-08-02T04:34:51;5.40;;;2.92;;
69795;SDS011;57073;45.650;9.612;2022-08-02T04:36:52;6.43;;;2.92;;
69795;SDS011;57073;45.650;9.612;2022-08-02T04:38:53;4.38;;;3.05;;
69795;SDS011;57073;45.650;9.612;2022-08-02T04:40:54;6.73;;;3.23;;
69795;SDS011;57073;45.650;9.612;2022-08-02T04:42:55;5.88;;;2.90;;
69795;SDS011;57073;45.650;9.612;2022-08-02T04:44:55;8.13;;;3.10;;
69795;SDS011;57073;45.650;9.612;2022-08-02T04:46:56;4.82;;;3.15;;
69795;SDS011;57073;45.650;9.612;2022-08-02T04:48:59;4.43;;;3.60;;
69795;SDS011;57073;45.650;9.612;2022-08-02T04:50:59;3.97;;;3.25;;
69795;SDS011;57073;45.650;9.612;2022-08-02T04:53:00;6.33;;;3.33;;
69795;SDS011;57073;45.650;9.612;2022-08-02T04:55:00;6.00;;;3.50;;
69795;SDS011;57073;45.650;9.612;2022-08-02T04:57:01;4.97;;;3.30;;
69795;SDS011;57073;45.650;9.612;2022-08-02T04:59:21;6.10;;;3.17;;
69795;SDS011;57073;45.650;9.612;2022-08-02T05:01:21;5.93;;;3.10;;
69795;SDS011;57073;45.650;9.612;2022-08-02T05:03:22;3.97;;;3.15;;
69795;SDS011;57073;45.650;9.612;2022-08-02T05:05:22;5.53;;;3.27;;
69795;SDS011;57073;45.650;9.612;2022-08-02T05:07:22;4.60;;;3.50;;
69795;SDS011;57073;45.650;9.612;2022-08-02T05:09:23;4.60;;;3.20;;
69795;SDS011;57073;45.650;9.612;2022-08-02T05:11:23;4.80;;;3.38;;
69795;SDS011;57073;45.650;9.612;2022-08-02T05:13:24;5.60;;;3.80;;
69795;SDS011;57073;45.650;9.612;2022-08-02T05:15:24;6.70;;;3.80;;
69795;SDS011;57073;45.650;9.612;2022-08-02T05:17:25;6.37;;;3.43;;
69795;SDS011;57073;45.650;9.612;2022-08-02T05:19:25;9.57;;;3.70;;
69795;SDS011;57073;45.650;9.612;2022-08-02T05:21:26;6.33;;;3.70;;
69795;SDS011;57073;45.650;9.612;2022-08-02T05:23:26;3.95;;;3.40;;
69795;SDS011;57073;45.650;9.612;2022-08-02T05:25:27;6.47;;;3.50;;
69795;SDS011;57073;45.650;9.612;2022-08-02T05:27:27;4.83;;;3.40;;
69795;SDS011;57073;45.650;9.612;2022-08-02T05:29:28;4.80;;;3.47;;
69795;SDS011;57073;45.650;9.612;2022-08-02T05:31:28;6.83;;;4.30;;
69795;SDS011;57073;45.650;9.612;2022-08-02T05:33:29;6.30;;;4.17;;
69795;SDS011;57073;45.650;9.612;2022-08-02T05:35:29;5.28;;;3.67;;
69795;SDS011;57073;45.650;9.612;2022-08-02T05:37:30;7.60;;;4.10;;
69795;SDS011;57073;45.650;9.612;2022-08-02T05:39:30;5.60;;;4.00;;
69795;SDS011;57073;45.650;9.612;2022-08-02T05:41:31;5.30;;;3.97;;
69795;SDS011;57073;45.650;9.612;2022-08-02T05:43:31;6.73;;;4.50;;
69795;SDS011;57073;45.650;9.612;2022-08-02T05:45:32;6.38;;;4.20;;
69795;SDS011;57073;45.650;9.612;2022-08-02T05:47:33;6.23;;;4.00;;
69795;SDS011;57073;45.650;9.612;2022-08-02T05:49:34;6.40;;;4.40;;
69795;SDS011;57073;45.650;9.612;2022-08-02T05:51:35;6.57;;;4.37;;
69795;SDS011;57073;45.650;9.612;2022-08-02T05:53:51;6.82;;;4.28;;
69795;SDS011;57073;45.650;9.612;2022-08-02T05:58:52;7.85;;;4.00;;
69795;SDS011;57073;45.650;9.612;2022-08-02T06:00:57;5.07;;;2.80;;
69795;SDS011;57073;45.650;9.612;2022-08-02T06:05:17;6.75;;;2.45;;
69795;SDS011;57073;45.650;9.612;2022-08-02T06:07:19;5.18;;;2.00;;
69795;SDS011;57073;45.650;9.612;2022-08-02T06:09:23;4.85;;;2.10;;
69795;SDS011;57073;45.650;9.612;2022-08-02T06:11:29;4.70;;;2.05;;
69795;SDS011;57073;45.650;9.612;2022-08-02T06:13:34;2.83;;;1.80;;
69795;SDS011;57073;45.650;9.612;2022-08-02T06:15:36;4.57;;;2.10;;
69795;SDS011;57073;45.650;9.612;2022-08-02T06:17:38;2.70;;;2.00;;
69795;SDS011;57073;45.650;9.612;2022-08-02T06:19:39;5.60;;;2.00;;
69795;SDS011;57073;45.650;9.612;2022-08-02T06:21:41;3.07;;;2.20;;
69795;SDS011;57073;45.650;9.612;2022-08-02T06:23:43;4.10;;;1.95;;
69795;SDS011;57073;45.650;9.612;2022-08-02T06:25:44;6.63;;;2.50;;
69795;SDS011;57073;45.650;9.612;2022-08-02T06:27:46;5.90;;;2.10;;
69795;SDS011;57073;45.650;9.612;2022-08-02T06:29:48;3.78;;;2.20;;
69795;SDS011;57073;45.650;9.612;2022-08-02T06:31:50;4.20;;;2.30;;
69795;SDS011;57073;45.650;9.612;2022-08-02T06:33:52;4.57;;;2.45;;
69795;SDS011;57073;45.650;9.612;2022-08-02T06:38:04;5.72;;;2.45;;
69795;SDS011;57073;45.650;9.612;2022-08-02T06:40:11;3.15;;;2.30;;
69795;SDS011;57073;45.650;9.612;2022-08-02T06:42:20;3.93;;;2.37;;
69795;SDS011;57073;45.650;9.612;2022-08-02T06:44:24;5.90;;;2.50;;
69795;SDS011;57073;45.650;9.612;2022-08-02T06:46:25;3.50;;;2.90;;
69795;SDS011;57073;45.650;9.612;2022-08-02T06:48:26;3.50;;;2.85;;
69795;SDS011;57073;45.650;9.612;2022-08-02T06:50:26;4.50;;;2.90;;
69795;SDS011;57073;45.650;9.612;2022-08-02T06:52:28;4.80;;;2.83;;
69795;SDS011;57073;45.650;9.612;2022-08-02T06:54:30;4.05;;;3.10;;
69795;SDS011;57073;45.650;9.612;2022-08-02T06:56:30;7.23;;;3.07;;
69795;SDS011;57073;45.650;9.612;2022-08-02T06:58:31;3.30;;;3.00;;
69795;SDS011;57073;45.650;9.612;2022-08-02T07:00:49;3.83;;;2.78;;
69795;SDS011;57073;45.650;9.612;2022-08-02T07:02:49;4.47;;;2.67;;
69795;SDS011;57073;45.650;9.612;2022-08-02T07:04:50;4.63;;;2.70;;
69795;SDS011;57073;45.650;9.612;2022-08-02T07:06:50;4.10;;;2.60;;
69795;SDS011;57073;45.650;9.612;2022-08-02T07:08:51;3.87;;;2.67;;
69795;SDS011;57073;45.650;9.612;2022-08-02T07:10:51;4.27;;;2.50;;
69795;SDS011;57073;45.650;9.612;2022-08-02T07:12:52;5.73;;;2.73;;
69795;SDS011;57073;45.650;9.612;2022-08-02T07:14:52;3.70;;;2.60;;
69795;SDS011;57073;45.650;9.612;2022-08-02T07:16:52;6.07;;;3.00;;
69795;SDS011;57073;45.650;9.612;2022-08-02T07:18:53;4.13;;;2.60;;
69795;SDS011;57073;45.650;9.612;2022-08-02T07:20:54;4.20;;;2.40;;
69795;SDS011;57073;45.650;9.612;2022-08-02T07:22:54;2.73;;;2.23;;
69795;SDS011;57073;45.650;9.612;2022-08-02T07:24:55;2.80;;;2.30;;
69795;SDS011;57073;45.650;9.612;2022-08-02T07:26:57;5.40;;;2.38;;
69795;SDS011;57073;45.650;9.612;2022-08-02T07:28:58;5.30;;;2.30;;
69795;SDS011;57073;45.650;9.612;2022-08-02T07:30:59;13.07;;;2.67;;
69795;SDS011;57073;45.650;9.612;2022-08-02T07:32:59;4.47;;;2.50;;
69795;SDS011;57073;45.650;9.612;2022-08-02T07:35:00;4.18;;;2.70;;
69795;SDS011;57073;45.650;9.612;2022-08-02T07:37:01;5.03;;;2.83;;
69795;SDS011;57073;45.650;9.612;2022-08-02T07:39:02;3.08;;;2.33;;
69795;SDS011;57073;45.650;9.612;2022-08-02T07:41:02;4.68;;;2.67;;
69795;SDS011;57073;45.650;9.612;2022-08-02T07:43:03;3.47;;;2.33;;
69795;SDS011;57073;45.650;9.612;2022-08-02T07:45:04;4.55;;;2.80;;
69795;SDS011;57073;45.650;9.612;2022-08-02T07:47:05;4.07;;;2.60;;
69795;SDS011;57073;45.650;9.612;2022-08-02T07:49:05;3.80;;;2.47;;
69795;SDS011;57073;45.650;9.612;2022-08-02T07:51:05;3.93;;;2.50;;
69795;SDS011;57073;45.650;9.612;2022-08-02T07:53:06;5.13;;;2.70;;
69795;SDS011;57073;45.650;9.612;2022-08-02T07:55:07;7.97;;;3.50;;
69795;SDS011;57073;45.650;9.612;2022-08-02T07:57:08;9.10;;;3.83;;
69795;SDS011;57073;45.650;9.612;2022-08-02T07:59:09;14.80;;;3.30;;
69795;SDS011;57073;45.650;9.612;2022-08-02T08:01:09;8.40;;;3.92;;
69795;SDS011;57073;45.650;9.612;2022-08-02T08:03:10;6.50;;;3.80;;
69795;SDS011;57073;45.650;9.612;2022-08-02T08:05:10;7.90;;;4.47;;
69795;SDS011;57073;45.650;9.612;2022-08-02T08:07:11;7.72;;;3.70;;
69795;SDS011;57073;45.650;9.612;2022-08-02T08:09:12;7.17;;;3.80;;
69795;SDS011;57073;45.650;9.612;2022-08-02T08:11:12;9.93;;;4.40;;
69795;SDS011;57073;45.650;9.612;2022-08-02T08:13:13;5.63;;;3.77;;
69795;SDS011;57073;45.650;9.612;2022-08-02T08:15:14;6.85;;;3.50;;
69795;SDS011;57073;45.650;9.612;2022-08-02T08:17:14;8.70;;;3.87;;
69795;SDS011;57073;45.650;9.612;2022-08-02T08:19:15;9.40;;;4.90;;
69795;SDS011;57073;45.650;9.612;2022-08-02T08:21:15;8.95;;;3.75;;
69795;SDS011;57073;45.650;9.612;2022-08-02T08:23:15;6.97;;;3.23;;
69795;SDS011;57073;45.650;9.612;2022-08-02T08:25:16;5.67;;;3.67;;
69795;SDS011;57073;45.650;9.612;2022-08-02T08:27:16;23.45;;;4.50;;
69795;SDS011;57073;45.650;9.612;2022-08-02T08:29:18;6.90;;;3.40;;
69795;SDS011;57073;45.650;9.612;2022-08-02T08:31:19;7.03;;;3.00;;
69795;SDS011;57073;45.650;9.612;2022-08-02T08:33:19;3.87;;;2.97;;
69795;SDS011;57073;45.650;9.612;2022-08-02T08:35:20;9.00;;;3.33;;
69795;SDS011;57073;45.650;9.612;2022-08-02T08:37:20;7.80;;;3.30;;
69795;SDS011;57073;45.650;9.612;2022-08-02T08:39:20;10.50;;;3.50;;
69795;SDS011;57073;45.650;9.612;2022-08-02T08:41:21;8.03;;;3.33;;
69795;SDS011;57073;45.650;9.612;2022-08-02T08:43:21;32.22;;;5.38;;
69795;SDS011;57073;45.650;9.612;2022-08-02T08:45:22;10.60;;;4.37;;
69795;SDS011;57073;45.650;9.612;2022-08-02T08:47:22;19.57;;;4.57;;
69795;SDS011;57073;45.650;9.612;2022-08-02T08:49:31;82.65;;;9.75;;
69795;SDS011;57073;45.650;9.612;2022-08-02T08:51:36;44.35;;;6.97;;
69795;SDS011;57073;45.650;9.612;2022-08-02T08:53:43;14.43;;;4.32;;
69795;SDS011;57073;45.650;9.612;2022-08-02T08:55:46;8.27;;;3.43;;
69795;SDS011;57073;45.650;9.612;2022-08-02T08:57:47;9.70;;;3.55;;
69795;SDS011;57073;45.650;9.612;2022-08-02T08:59:48;95.40;;;12.38;;
69795;SDS011;57073;45.650;9.612;2022-08-02T09:01:49;14.15;;;4.03;;
69795;SDS011;57073;45.650;9.612;2022-08-02T09:03:51;8.03;;;3.47;;
69795;SDS011;57073;45.650;9.612;2022-08-02T09:05:51;7.75;;;3.20;;
69795;SDS011;57073;45.650;9.612;2022-08-02T09:07:53;16.80;;;3.53;;
69795;SDS011;57073;45.650;9.612;2022-08-02T09:09:53;10.25;;;3.25;;
69795;SDS011;57073;45.650;9.612;2022-08-02T09:11:54;8.70;;;3.33;;
69795;SDS011;57073;45.650;9.612;2022-08-02T09:14:12;7.97;;;3.60;;
69795;SDS011;57073;45.650;9.612;2022-08-02T09:18:38;7.93;;;3.40;;
69795;SDS011;57073;45.650;9.612;2022-08-02T09:23:09;9.23;;;3.77;;
69795;SDS011;57073;45.650;9.612;2022-08-02T09:25:14;8.32;;;4.05;;
69795;SDS011;57073;45.650;9.612;2022-08-02T09:27:16;9.05;;;3.97;;
69795;SDS011;57073;45.650;9.612;2022-08-02T09:29:18;7.57;;;4.00;;
69795;SDS011;57073;45.650;9.612;2022-08-02T09:31:22;11.63;;;4.28;;
69795;SDS011;57073;45.650;9.612;2022-08-02T09:33:24;6.60;;;3.60;;
69795;SDS011;57073;45.650;9.612;2022-08-02T09:35:32;5.53;;;4.28;;
69795;SDS011;57073;45.650;9.612;2022-08-02T09:37:37;8.88;;;3.85;;
69795;SDS011;57073;45.650;9.612;2022-08-02T09:39:43;7.63;;;3.30;;
69795;SDS011;57073;45.650;9.612;2022-08-02T09:41:44;5.78;;;3.67;;
69795;SDS011;57073;45.650;9.612;2022-08-02T09:43:45;8.50;;;3.90;;
69795;SDS011;57073;45.650;9.612;2022-08-02T09:45:45;9.20;;;3.30;;
69795;SDS011;57073;45.650;9.612;2022-08-02T09:47:47;6.20;;;4.03;;
69795;SDS011;57073;45.650;9.612;2022-08-02T09:49:48;5.32;;;3.05;;
69795;SDS011;57073;45.650;9.612;2022-08-02T09:51:49;7.67;;;4.07;;
69795;SDS011;57073;45.650;9.612;2022-08-02T09:53:53;8.85;;;4.45;;
69795;SDS011;57073;45.650;9.612;2022-08-02T09:55:55;5.33;;;4.10;;
69795;SDS011;57073;45.650;9.612;2022-08-02T09:57:56;5.65;;;3.70;;
69795;SDS011;57073;45.650;9.612;2022-08-02T09:59:57;5.37;;;3.33;;
69795;SDS011;57073;45.650;9.612;2022-08-02T10:01:58;6.82;;;4.20;;
69795;SDS011;57073;45.650;9.612;2022-08-02T10:04:01;5.90;;;4.20;;
69795;SDS011;57073;45.650;9.612;2022-08-02T10:06:04;12.85;;;4.70;;
69795;SDS011;57073;45.650;9.612;2022-08-02T10:08:04;8.33;;;3.97;;
69795;SDS011;57073;45.650;9.612;2022-08-02T10:10:05;7.67;;;3.87;;
69795;SDS011;57073;45.650;9.612;2022-08-02T10:12:06;8.10;;;3.50;;
69795;SDS011;57073;45.650;9.612;2022-08-02T10:14:07;8.13;;;4.40;;
69795;SDS011;57073;45.650;9.612;2022-08-02T10:16:09;7.40;;;4.03;;
69795;SDS011;57073;45.650;9.612;2022-08-02T10:18:10;10.65;;;4.15;;
69795;SDS011;57073;45.650;9.612;2022-08-02T10:20:11;8.50;;;4.00;;
69795;SDS011;57073;45.650;9.612;2022-08-02T10:22:12;7.22;;;5.22;;
69795;SDS011;57073;45.650;9.612;2022-08-02T10:24:15;7.50;;;4.57;;
69795;SDS011;57073;45.650;9.612;2022-08-02T10:26:18;8.27;;;4.33;;
69795;SDS011;57073;45.650;9.612;2022-08-02T10:28:26;6.68;;;3.78;;
69795;SDS011;57073;45.650;9.612;2022-08-02T10:30:35;5.38;;;3.50;;
69795;SDS011;57073;45.650;9.612;2022-08-02T10:32:38;8.30;;;3.92;;
69795;SDS011;57073;45.650;9.612;2022-08-02T10:34:47;5.25;;;3.58;;
69795;SDS011;57073;45.650;9.612;2022-08-02T10:36:53;6.10;;;3.80;;
69795;SDS011;57073;45.650;9.612;2022-08-02T10:38:54;6.43;;;3.50;;
69795;SDS011;57073;45.650;9.612;2022-08-02T10:40:57;6.72;;;3.83;;
69795;SDS011;57073;45.650;9.612;2022-08-02T10:42:58;9.50;;;3.90;;
69795;SDS011;57073;45.650;9.612;2022-08-02T10:45:11;8.00;;;4.03;;
69795;SDS011;57073;45.650;9.612;2022-08-02T10:49:16;8.13;;;3.22;;
69795;SDS011;57073;45.650;9.612;2022-08-02T10:51:18;9.27;;;3.30;;
69795;SDS011;57073;45.650;9.612;2022-08-02T10:55:25;5.90;;;3.22;;
69795;SDS011;57073;45.650;9.612;2022-08-02T10:57:30;11.50;;;3.47;;
69795;SDS011;57073;45.650;9.612;2022-08-02T10:59:35;8.23;;;3.63;;
69795;SDS011;57073;45.650;9.612;2022-08-02T11:01:38;5.57;;;3.30;;
69795;SDS011;57073;45.650;9.612;2022-08-02T11:03:44;6.17;;;2.80;;
69795;SDS011;57073;45.650;9.612;2022-08-02T11:05:58;5.13;;;2.50;;
69795;SDS011;57073;45.650;9.612;2022-08-02T11:08:16;3.95;;;2.40;;
69795;SDS011;57073;45.650;9.612;2022-08-02T11:10:34;3.95;;;2.10;;
69795;SDS011;57073;45.650;9.612;2022-08-02T11:12:57;4.72;;;2.53;;
69795;SDS011;57073;45.650;9.612;2022-08-02T11:15:08;4.90;;;3.00;;
69795;SDS011;57073;45.650;9.612;2022-08-02T11:17:15;4.47;;;2.55;;
69795;SDS011;57073;45.650;9.612;2022-08-02T11:19:17;4.20;;;2.00;;
69795;SDS011;57073;45.650;9.612;2022-08-02T11:21:21;5.40;;;2.10;;
69795;SDS011;57073;45.650;9.612;2022-08-02T11:23:33;3.25;;;2.20;;
69795;SDS011;57073;45.650;9.612;2022-08-02T11:25:37;5.20;;;2.38;;
69795;SDS011;57073;45.650;9.612;2022-08-02T11:27:38;6.00;;;2.30;;
69795;SDS011;57073;45.650;9.612;2022-08-02T11:29:40;6.40;;;2.20;;
69795;SDS011;57073;45.650;9.612;2022-08-02T11:31:43;3.55;;;2.17;;
69795;SDS011;57073;45.650;9.612;2022-08-02T11:33:44;5.77;;;2.30;;
69795;SDS011;57073;45.650;9.612;2022-08-02T11:35:44;4.18;;;2.05;;
69795;SDS011;57073;45.650;9.612;2022-08-02T11:37:45;3.40;;;2.13;;
69795;SDS011;57073;45.650;9.612;2022-08-02T11:39:49;4.23;;;2.00;;
69795;SDS011;57073;45.650;9.612;2022-08-02T11:41:54;4.45;;;1.90;;
69795;SDS011;57073;45.650;9.612;2022-08-02T11:43:56;2.80;;;1.60;;
69795;SDS011;57073;45.650;9.612;2022-08-02T11:45:57;3.17;;;1.80;;
69795;SDS011;57073;45.650;9.612;2022-08-02T11:48:02;4.63;;;1.70;;
69795;SDS011;57073;45.650;9.612;2022-08-02T11:50:04;3.00;;;1.70;;
69795;SDS011;57073;45.650;9.612;2022-08-02T11:52:08;3.90;;;1.60;;
69795;SDS011;57073;45.650;9.612;2022-08-02T11:54:09;3.65;;;1.65;;
69795;SDS011;57073;45.650;9.612;2022-08-02T11:56:10;3.40;;;1.50;;
69795;SDS011;57073;45.650;9.612;2022-08-02T11:58:11;3.60;;;1.65;;
69795;SDS011;57073;45.650;9.612;2022-08-02T12:00:13;2.40;;;1.63;;
69795;SDS011;57073;45.650;9.612;2022-08-02T12:02:16;3.00;;;1.67;;
69795;SDS011;57073;45.650;9.612;2022-08-02T12:04:18;3.53;;;1.80;;
69795;SDS011;57073;45.650;9.612;2022-08-02T12:06:19;2.00;;;1.60;;
69795;SDS011;57073;45.650;9.612;2022-08-02T12:08:19;3.70;;;1.53;;
69795;SDS011;57073;45.650;9.612;2022-08-02T12:10:23;2.33;;;1.60;;
69795;SDS011;57073;45.650;9.612;2022-08-02T12:12:25;3.58;;;1.67;;
69795;SDS011;57073;45.650;9.612;2022-08-02T12:14:26;2.20;;;1.60;;
69795;SDS011;57073;45.650;9.612;2022-08-02T12:16:34;2.88;;;1.52;;
69795;SDS011;57073;45.650;9.612;2022-08-02T12:18:56;3.50;;;1.77;;
69795;SDS011;57073;45.650;9.612;2022-08-02T12:21:22;2.27;;;1.50;;
69795;SDS011;57073;45.650;9.612;2022-08-02T12:23:26;2.55;;;1.50;;
69795;SDS011;57073;45.650;9.612;2022-08-02T12:25:26;2.30;;;1.70;;
69795;SDS011;57073;45.650;9.612;2022-08-02T12:27:36;2.37;;;1.70;;
69795;SDS011;57073;45.650;9.612;2022-08-02T12:29:40;1.73;;;1.60;;
69795;SDS011;57073;45.650;9.612;2022-08-02T12:31:45;1.83;;;1.63;;
69795;SDS011;57073;45.650;9.612;2022-08-02T12:33:48;2.95;;;1.30;;
69795;SDS011;57073;45.650;9.612;2022-08-02T12:35:49;2.25;;;1.70;;
69795;SDS011;57073;45.650;9.612;2022-08-02T12:37:50;2.60;;;1.53;;
69795;SDS011;57073;45.650;9.612;2022-08-02T12:39:51;2.05;;;1.80;;
69795;SDS011;57073;45.650;9.612;2022-08-02T12:41:55;3.40;;;1.77;;
69795;SDS011;57073;45.650;9.612;2022-08-02T12:43:56;4.07;;;1.77;;